createdAt,value
2023-01-11T00:01:10.989Z,66.44
2023-01-11T00:03:37.840Z,66.09
2023-01-11T00:06:05.025Z,66.24
2023-01-11T00:08:34.138Z,67.09
2023-01-11T00:11:02.446Z,65.33
2023-01-11T00:13:30.409Z,64.29
2023-01-11T00:15:57.571Z,64.35
2023-01-11T00:18:24.491Z,63.76
2023-01-11T00:20:51.364Z,63.90
2023-01-11T00:23:18.242Z,64.96
2023-01-11T00:25:45.158Z,69.47
2023-01-11T00:28:11.939Z,70.37
2023-01-11T00:30:39.065Z,70.58
2023-01-11T00:33:11.375Z,71.72
2023-01-11T00:35:38.335Z,72.38
2023-01-11T00:38:05.167Z,73.58
2023-01-11T00:40:32.172Z,72.85
2023-01-11T00:43:23.355Z,73.06
2023-01-11T00:46:08.845Z,73.51
2023-01-11T00:48:35.723Z,74.52
2023-01-11T00:51:02.652Z,74.62
2023-01-11T00:53:29.526Z,74.57
2023-01-11T00:55:56.304Z,75.05
2023-01-11T00:58:29.137Z,74.06
2023-01-11T01:00:56.145Z,74.59
2023-01-11T01:03:26.328Z,74.89
2023-01-11T01:05:57.249Z,75.34
2023-01-11T01:08:24.133Z,75.43
2023-01-11T01:10:54.275Z,75.38
2023-01-11T01:13:56.411Z,75.25
2023-01-11T01:16:23.433Z,75.58
2023-01-11T01:18:52.375Z,75.15
2023-01-11T01:21:21.864Z,75.38
2023-01-11T01:23:48.959Z,76.18
2023-01-11T01:26:18.578Z,75.74
2023-01-11T01:28:54.699Z,76.30
2023-01-11T01:31:21.767Z,76.84
2023-01-11T01:33:48.903Z,77.18
2023-01-11T01:36:15.952Z,77.53
2023-01-11T01:38:43.152Z,76.98
2023-01-11T01:41:12.528Z,77.24
2023-01-11T01:43:52.179Z,76.92
2023-01-11T01:46:20.821Z,77.28
2023-01-11T01:48:57.742Z,76.72
2023-01-11T01:51:31.004Z,77.12
2023-01-11T01:54:07.326Z,77.28
2023-01-11T01:56:48.850Z,76.78
2023-01-11T01:59:32.160Z,77.34
2023-01-11T02:01:59.821Z,77.76
2023-01-11T02:04:30.058Z,78.66
2023-01-11T02:07:20.342Z,78.73
2023-01-11T02:10:08.174Z,79.30
2023-01-11T02:12:39.280Z,78.89
2023-01-11T02:15:08.571Z,79.27
2023-01-11T02:17:37.713Z,79.21
2023-01-11T02:20:09.695Z,79.64
2023-01-11T02:22:48.830Z,79.32
2023-01-11T02:25:34.544Z,78.76
2023-01-11T02:28:28.318Z,78.82
2023-01-11T02:31:17.255Z,79.54
2023-01-11T02:34:26.874Z,80.55
2023-01-11T02:37:12.947Z,80.39
2023-01-11T02:40:15.150Z,81.48
2023-01-11T02:43:12.911Z,80.91
2023-01-11T02:45:51.140Z,81.30
2023-01-11T02:48:29.087Z,81.34
2023-01-11T02:51:11.331Z,80.85
2023-01-11T02:53:48.612Z,80.57
2023-01-11T02:56:27.009Z,80.47
2023-01-11T02:58:55.848Z,80.15
2023-01-11T03:01:23.566Z,80.51
2023-01-11T03:03:51.197Z,79.65
2023-01-11T03:06:35.000Z,80.19
2023-01-11T03:09:05.085Z,79.87
2023-01-11T03:12:20.174Z,80.21
2023-01-11T03:14:59.501Z,79.56
2023-01-11T03:17:35.953Z,79.94
2023-01-11T03:20:28.962Z,79.62
2023-01-11T03:23:05.310Z,79.48
2023-01-11T03:25:50.708Z,79.40
2023-01-11T03:28:32.821Z,79.60
2023-01-11T03:31:08.149Z,78.80
2023-01-11T03:33:52.996Z,78.75
2023-01-11T03:36:21.906Z,78.88
2023-01-11T03:38:56.297Z,78.02
2023-01-11T03:41:26.781Z,78.15
2023-01-11T03:43:54.706Z,77.92
2023-01-11T03:46:28.848Z,77.83
2023-01-11T03:49:02.713Z,77.68
2023-01-11T03:51:52.353Z,77.81
2023-01-11T03:54:25.212Z,78.13
2023-01-11T03:57:04.804Z,77.87
2023-01-11T03:59:35.674Z,77.91
2023-01-11T04:02:03.020Z,77.95
2023-01-11T04:04:30.020Z,77.53
2023-01-11T04:06:57.224Z,77.29
2023-01-11T04:09:24.468Z,77.16
2023-01-11T04:11:53.925Z,76.96
2023-01-11T04:14:21.028Z,77.12
2023-01-11T04:16:47.985Z,77.39
2023-01-11T04:19:14.996Z,77.34
2023-01-11T04:21:42.063Z,77.33
2023-01-11T04:24:09.400Z,77.57
2023-01-11T04:26:36.534Z,78.38
2023-01-11T04:29:05.982Z,78.47
2023-01-11T04:31:33.505Z,77.97
2023-01-11T04:34:00.796Z,78.22
2023-01-11T04:36:32.350Z,78.23
2023-01-11T04:38:59.766Z,78.04
2023-01-11T04:41:47.768Z,77.78
2023-01-11T04:44:14.846Z,78.41
2023-01-11T04:46:45.861Z,77.90
2023-01-11T04:49:15.354Z,77.55
2023-01-11T04:51:42.418Z,77.57
2023-01-11T04:54:09.514Z,77.73
2023-01-11T04:56:36.551Z,77.58
2023-01-11T04:59:05.702Z,77.65
2023-01-11T05:01:32.764Z,77.88
2023-01-11T05:04:00.061Z,77.26
2023-01-11T05:06:27.239Z,77.45
2023-01-11T05:08:54.471Z,77.30
2023-01-11T05:11:21.625Z,77.04
2023-01-11T05:13:54.297Z,77.59
2023-01-11T05:16:32.222Z,77.19
2023-01-11T05:19:05.127Z,77.70
2023-01-11T05:21:39.578Z,77.23
2023-01-11T05:24:12.436Z,76.58
2023-01-11T05:26:44.080Z,76.96
2023-01-11T05:29:13.843Z,77.51
2023-01-11T05:31:41.284Z,77.68
2023-01-11T05:34:10.719Z,77.54
2023-01-11T05:36:37.893Z,77.35
2023-01-11T05:41:46.594Z,76.88
2023-01-11T05:44:32.579Z,76.28
2023-01-11T05:46:59.809Z,76.53
2023-01-11T05:49:28.898Z,76.67
2023-01-11T05:51:58.085Z,76.67
2023-01-11T05:54:26.142Z,76.24
2023-01-11T05:56:53.148Z,76.17
2023-01-11T05:59:20.393Z,76.25
2023-01-11T06:01:47.938Z,76.58
2023-01-11T06:04:16.934Z,76.83
2023-01-11T06:06:51.462Z,76.75
2023-01-11T06:09:18.681Z,77.12
2023-01-11T06:11:45.864Z,77.05
2023-01-11T06:14:12.886Z,76.77
2023-01-11T06:16:43.410Z,76.96
2023-01-11T06:19:17.070Z,77.02
2023-01-11T06:21:44.282Z,76.91
2023-01-11T06:24:11.375Z,77.17
2023-01-11T06:26:44.823Z,77.66
2023-01-11T06:29:12.137Z,77.66
2023-01-11T06:31:40.589Z,77.58
2023-01-11T06:34:07.792Z,78.63
2023-01-11T06:36:38.236Z,78.53
2023-01-11T06:39:07.868Z,78.58
2023-01-11T06:41:35.011Z,78.04
2023-01-11T06:44:03.407Z,77.82
2023-01-11T06:46:30.596Z,77.39
2023-01-11T06:48:57.960Z,77.03
2023-01-11T06:51:25.094Z,76.82
2023-01-11T06:53:52.288Z,76.67
2023-01-11T06:56:23.721Z,76.61
2023-01-11T06:58:52.433Z,76.66
2023-01-11T07:01:19.775Z,76.92
2023-01-11T07:03:48.464Z,76.20
2023-01-11T07:06:15.562Z,75.23
2023-01-11T07:08:42.921Z,75.52
2023-01-11T07:11:10.048Z,74.27
2023-01-11T07:13:37.032Z,74.11
2023-01-11T07:16:04.313Z,73.65
2023-01-11T07:18:31.944Z,73.46
2023-01-11T07:21:05.482Z,73.54
2023-01-11T07:23:32.568Z,73.63
2023-01-11T07:25:59.828Z,72.31
2023-01-11T07:28:28.611Z,71.88
2023-01-11T07:30:59.215Z,71.50
2023-01-11T07:33:31.687Z,70.86
2023-01-11T07:36:00.885Z,70.84
2023-01-11T07:38:30.731Z,70.59
2023-01-11T07:40:57.723Z,69.58
2023-01-11T07:43:24.662Z,69.22
2023-01-11T07:45:55.174Z,68.73
2023-01-11T07:48:26.918Z,68.12
2023-01-11T07:50:54.471Z,68.46
2023-01-11T07:53:22.199Z,67.87
2023-01-11T07:55:51.493Z,68.23
2023-01-11T07:58:18.575Z,67.15
2023-01-11T08:00:46.387Z,66.69
2023-01-11T08:03:13.725Z,67.24
2023-01-11T08:05:43.253Z,67.04
2023-01-11T08:08:10.392Z,66.66
2023-01-11T08:10:38.001Z,67.14
2023-01-11T08:13:35.169Z,67.37
2023-01-11T08:16:02.484Z,67.25
2023-01-11T08:18:29.589Z,68.04
2023-01-11T08:20:56.621Z,67.10
2023-01-11T08:23:23.907Z,67.21
2023-01-11T08:26:00.036Z,67.40
2023-01-11T08:28:28.531Z,67.10
2023-01-11T08:30:55.696Z,67.29
2023-01-11T08:33:26.694Z,67.43
2023-01-11T08:35:54.099Z,67.26
2023-01-11T08:38:37.238Z,67.71
2023-01-11T08:41:31.296Z,67.71
2023-01-11T08:44:05.624Z,67.63
2023-01-11T08:46:35.556Z,67.54
2023-01-11T08:49:12.442Z,67.66
2023-01-11T08:51:40.681Z,67.97
2023-01-11T08:54:17.954Z,67.54
2023-01-11T08:56:51.647Z,67.02
2023-01-11T08:59:22.132Z,65.94
2023-01-11T09:01:49.539Z,66.00
2023-01-11T09:04:24.780Z,66.65
2023-01-11T09:06:55.449Z,66.17
2023-01-11T09:09:22.976Z,65.34
2023-01-11T09:11:57.348Z,66.08
2023-01-11T09:14:28.272Z,65.35
2023-01-11T09:16:56.422Z,65.47
2023-01-11T09:19:23.897Z,65.86
2023-01-11T09:21:51.984Z,66.77
2023-01-11T09:24:19.385Z,65.92
2023-01-11T09:26:46.757Z,65.83
2023-01-11T09:29:14.401Z,66.31
2023-01-11T09:31:41.738Z,65.12
2023-01-11T09:34:11.298Z,64.23
2023-01-11T09:36:40.395Z,65.18
2023-01-11T09:39:10.739Z,64.24
2023-01-11T09:42:00.592Z,65.37
2023-01-11T09:44:29.945Z,65.00
2023-01-11T09:47:12.655Z,65.38
2023-01-11T09:49:45.194Z,65.22
2023-01-11T09:52:24.541Z,64.89
2023-01-11T09:54:51.908Z,64.85
2023-01-11T09:57:34.418Z,63.64
2023-01-11T10:00:09.966Z,64.08
2023-01-11T10:02:50.208Z,63.80
2023-01-11T10:05:36.806Z,63.45
2023-01-11T10:18:25.382Z,63.38
2023-01-11T10:18:26.625Z,64.01
2023-01-11T10:21:11.249Z,63.98
2023-01-11T10:23:55.441Z,63.59
2023-01-11T10:26:29.389Z,62.29
2023-01-11T10:29:19.814Z,62.42
2023-01-11T10:32:43.764Z,62.30
2023-01-11T10:35:52.081Z,62.55
2023-01-11T10:38:56.331Z,62.46
2023-01-11T10:42:00.200Z,62.59
2023-01-11T10:44:39.181Z,62.94
2023-01-11T10:47:16.650Z,62.04
2023-01-11T10:50:06.205Z,62.97
2023-01-11T10:52:48.147Z,61.50
2023-01-11T10:55:23.264Z,61.30
2023-01-11T10:58:19.891Z,60.49
2023-01-11T11:01:17.325Z,61.45
2023-01-11T11:04:20.573Z,61.73
2023-01-11T11:06:55.478Z,60.72
2023-01-11T11:09:42.605Z,59.87
2023-01-11T11:12:19.008Z,60.05
2023-01-11T11:14:52.701Z,59.72
2023-01-11T11:17:28.990Z,59.09
2023-01-11T11:19:59.060Z,58.99
2023-01-11T11:22:29.323Z,59.25
2023-01-11T11:25:02.090Z,59.29
2023-01-11T11:27:41.825Z,59.55
2023-01-11T11:30:14.377Z,60.18
2023-01-11T11:32:54.686Z,59.46
2023-01-11T11:35:38.344Z,59.21
2023-01-11T11:38:06.110Z,59.59
2023-01-11T11:40:35.134Z,59.73
2023-01-11T11:43:23.099Z,60.51
2023-01-11T11:45:54.506Z,59.75
2023-01-11T11:48:22.611Z,59.36
2023-01-11T11:50:50.143Z,59.59
2023-01-11T11:53:29.712Z,59.94
2023-01-11T11:55:58.914Z,60.17
2023-01-11T11:58:26.741Z,59.92
2023-01-11T12:00:54.107Z,59.62
2023-01-11T12:03:22.301Z,60.81
2023-01-11T12:05:51.274Z,59.70
2023-01-11T12:08:24.798Z,59.08
2023-01-11T12:11:01.105Z,59.25
2023-01-11T12:13:33.621Z,58.99
2023-01-11T12:16:03.303Z,59.17
2023-01-11T12:18:41.554Z,58.71
2023-01-11T12:21:14.642Z,58.41
2023-01-11T12:23:41.754Z,59.60
2023-01-11T12:26:15.403Z,59.15
2023-01-11T12:29:00.789Z,59.02
2023-01-11T12:31:42.938Z,59.89
2023-01-11T12:34:23.528Z,60.95
2023-01-11T12:37:23.410Z,61.50
2023-01-11T12:39:58.274Z,61.22
2023-01-11T12:42:48.189Z,60.73
2023-01-11T12:45:45.740Z,60.21
2023-01-11T12:48:36.018Z,60.09
2023-01-11T12:51:24.353Z,59.92
2023-01-11T12:54:04.319Z,60.09
2023-01-11T12:57:08.537Z,59.91
2023-01-11T12:59:41.478Z,61.27
2023-01-11T13:02:22.082Z,62.29
2023-01-11T13:05:06.819Z,61.89
2023-01-11T13:07:49.083Z,62.08
2023-01-11T13:10:40.353Z,62.21
2023-01-11T13:13:22.743Z,61.93
2023-01-11T13:15:53.664Z,62.63
2023-01-11T13:18:29.807Z,62.66
2023-01-11T13:21:18.723Z,61.44
2023-01-11T13:24:16.025Z,62.26
2023-01-11T13:26:45.729Z,61.58
2023-01-11T13:29:25.136Z,62.36
2023-01-11T13:31:54.515Z,62.15
2023-01-11T13:34:52.652Z,62.96
2023-01-11T13:37:44.679Z,63.20
2023-01-11T13:40:29.615Z,63.29
2023-01-11T13:43:00.181Z,63.23
2023-01-11T13:45:40.738Z,62.95
2023-01-11T13:48:25.868Z,62.95
2023-01-11T13:51:05.200Z,63.26
2023-01-11T13:53:37.224Z,63.62
2023-01-11T13:56:19.204Z,63.83
2023-01-11T13:58:56.450Z,63.95
2023-01-11T14:01:44.211Z,64.46
2023-01-11T14:04:23.432Z,64.10
2023-01-11T14:07:08.476Z,63.89
2023-01-11T14:10:00.810Z,64.57
2023-01-11T14:12:33.825Z,64.97
2023-01-11T14:15:03.744Z,65.04
2023-01-11T14:17:42.472Z,65.09
2023-01-11T14:20:20.962Z,65.19
2023-01-11T14:23:07.770Z,64.75
2023-01-11T14:25:52.920Z,65.24
2023-01-11T14:28:31.227Z,65.22
2023-01-11T14:31:04.087Z,64.41
2023-01-11T14:33:52.283Z,64.10
2023-01-11T14:36:44.308Z,64.47
2023-01-11T14:39:24.017Z,64.75
2023-01-11T14:42:31.047Z,66.11
2023-01-11T14:45:22.636Z,65.19
2023-01-11T14:48:13.931Z,65.73
2023-01-11T14:51:16.099Z,65.39
2023-01-11T14:53:47.965Z,65.76
2023-01-11T14:56:42.910Z,65.74
2023-01-11T14:59:31.715Z,65.07
2023-01-11T15:02:04.890Z,65.38
2023-01-11T15:04:38.672Z,66.78
2023-01-11T15:07:24.627Z,66.43
2023-01-11T15:09:54.250Z,65.88
2023-01-11T15:12:24.297Z,66.54
2023-01-11T15:15:12.917Z,66.81
2023-01-11T15:17:59.493Z,66.80
2023-01-11T15:20:26.892Z,67.14
2023-01-11T15:23:01.960Z,67.54
2023-01-11T15:25:33.783Z,67.00
2023-01-11T15:28:25.413Z,67.74
2023-01-11T15:30:52.780Z,68.05
2023-01-11T15:33:19.909Z,67.80
2023-01-11T15:35:56.141Z,68.16
2023-01-11T15:38:45.467Z,68.41
2023-01-11T15:41:36.573Z,68.52
2023-01-11T15:44:22.101Z,68.32
2023-01-11T15:47:15.195Z,69.09
2023-01-11T15:50:21.195Z,68.78
2023-01-11T15:53:23.549Z,68.91
2023-01-11T15:56:08.410Z,69.68
2023-01-11T15:58:57.176Z,69.51
2023-01-11T16:01:26.620Z,69.75
2023-01-11T16:04:05.683Z,69.29
2023-01-11T16:06:37.012Z,69.63
2023-01-11T16:09:15.310Z,69.75
2023-01-11T16:11:51.323Z,69.91
2023-01-11T16:14:42.682Z,69.78
2023-01-11T16:17:14.255Z,69.94
2023-01-11T16:19:44.177Z,69.97
2023-01-11T16:22:19.654Z,69.95
2023-01-11T16:24:49.638Z,69.62
2023-01-11T16:27:24.434Z,69.53
2023-01-11T16:29:52.074Z,69.74
2023-01-11T16:32:27.286Z,69.62
2023-01-11T16:34:55.299Z,69.68
2023-01-11T16:37:25.456Z,69.57
2023-01-11T16:39:55.461Z,69.69
2023-01-11T16:42:22.738Z,69.76
2023-01-11T16:45:14.967Z,69.90
2023-01-11T16:47:42.113Z,70.22
2023-01-11T16:50:20.307Z,69.35
2023-01-11T16:52:55.905Z,70.03
2023-01-11T16:55:27.365Z,69.92
2023-01-11T16:57:57.978Z,70.27
2023-01-11T17:00:34.524Z,70.26
2023-01-11T17:03:06.635Z,69.65
2023-01-11T17:05:40.663Z,70.25
2023-01-11T17:08:52.648Z,70.01
2023-01-11T17:11:31.258Z,70.13
2023-01-11T17:14:27.288Z,70.09
2023-01-11T17:17:00.530Z,70.27
2023-01-11T17:19:29.956Z,70.67
2023-01-11T17:22:09.032Z,70.40
2023-01-11T17:25:02.470Z,70.61
2023-01-11T17:27:38.419Z,70.97
2023-01-11T17:30:14.979Z,70.68
2023-01-11T17:32:44.706Z,70.79
2023-01-11T17:35:17.994Z,70.60
2023-01-11T17:37:45.811Z,70.78
2023-01-11T17:40:21.319Z,70.64
2023-01-11T17:43:10.151Z,71.05
2023-01-11T17:45:39.502Z,71.40
2023-01-11T17:48:14.625Z,71.41
2023-01-11T17:50:49.772Z,71.58
2023-01-11T17:53:21.548Z,71.85
2023-01-11T17:55:52.795Z,72.00
2023-01-11T17:58:22.013Z,72.18
2023-01-11T18:01:15.473Z,72.13
2023-01-11T18:03:57.169Z,72.25
2023-01-11T18:06:35.288Z,72.08
2023-01-11T18:09:16.409Z,72.43
2023-01-11T18:11:43.489Z,71.89
2023-01-11T18:14:28.277Z,72.48
2023-01-11T18:17:03.387Z,73.03
2023-01-11T18:19:39.065Z,73.02
2023-01-11T18:22:25.769Z,73.15
2023-01-11T18:24:53.940Z,73.88
2023-01-11T18:27:28.281Z,74.20
2023-01-11T18:29:56.915Z,74.29
2023-01-11T18:32:24.121Z,74.88
2023-01-11T18:34:53.551Z,74.29
2023-01-11T18:37:20.909Z,73.77
2023-01-11T18:39:48.743Z,74.48
2023-01-11T18:42:21.940Z,74.76
2023-01-11T18:44:49.668Z,74.92
2023-01-11T18:47:25.024Z,74.67
2023-01-11T18:49:52.188Z,74.45
2023-01-11T18:52:23.646Z,74.82
2023-01-11T18:54:51.449Z,74.92
2023-01-11T18:57:19.001Z,75.49
2023-01-11T18:59:47.082Z,75.97
2023-01-11T19:04:46.426Z,76.03
2023-01-11T19:07:14.030Z,76.69
2023-01-11T19:09:41.434Z,76.43
2023-01-11T19:12:08.678Z,76.90
2023-01-11T19:14:36.044Z,76.23
2023-01-11T19:17:04.980Z,76.57
2023-01-11T19:19:32.188Z,76.19
2023-01-11T19:22:01.971Z,75.81
2023-01-11T19:24:29.330Z,75.82
2023-01-11T19:26:56.485Z,75.79
2023-01-11T19:29:26.223Z,75.37
2023-01-11T19:31:55.813Z,75.21
2023-01-11T19:34:23.501Z,75.11
2023-01-11T19:36:51.577Z,74.79
2023-01-11T19:39:18.733Z,74.64
2023-01-11T19:41:54.800Z,74.17
2023-01-11T19:44:24.286Z,73.89
2023-01-11T19:46:57.043Z,74.61
2023-01-11T19:49:36.895Z,75.45
2023-01-11T19:52:04.468Z,75.37
2023-01-11T19:54:31.575Z,74.71
2023-01-11T19:56:58.967Z,74.91
2023-01-11T19:59:26.074Z,74.70
2023-01-11T20:01:53.139Z,75.32
2023-01-11T20:04:21.236Z,75.20
2023-01-11T20:06:52.204Z,75.13
2023-01-11T20:09:19.761Z,74.88
2023-01-11T20:11:49.490Z,75.20
2023-01-11T20:14:16.967Z,74.74
2023-01-11T20:16:44.105Z,75.26
2023-01-11T20:19:11.182Z,74.71
2023-01-11T20:21:39.509Z,74.34
2023-01-11T20:24:06.749Z,74.40
2023-01-11T20:26:36.666Z,74.83
2023-01-11T20:29:05.804Z,74.31
2023-01-11T20:31:35.251Z,74.01
2023-01-11T20:34:06.954Z,74.00
2023-01-11T20:36:33.871Z,74.25
2023-01-11T20:39:00.767Z,73.99
2023-01-11T20:41:46.771Z,74.33
2023-01-11T20:44:24.270Z,73.94
2023-01-11T20:46:52.419Z,73.34
2023-01-11T20:49:23.173Z,73.56
2023-01-11T20:51:50.523Z,73.52
2023-01-11T20:54:18.804Z,73.54
2023-01-11T20:56:48.681Z,73.69
2023-01-11T20:59:19.228Z,73.42
2023-01-11T21:01:50.469Z,73.57
2023-01-11T21:04:18.774Z,73.96
2023-01-11T21:06:48.457Z,73.69
2023-01-11T21:09:17.249Z,73.38
2023-01-11T21:11:44.491Z,73.27
2023-01-11T21:14:14.264Z,73.41
2023-01-11T21:16:42.109Z,73.65
2023-01-11T21:19:11.608Z,73.65
2023-01-11T21:21:38.742Z,73.35
2023-01-11T21:24:06.290Z,73.06
2023-01-11T21:26:35.044Z,73.27
2023-01-11T21:29:04.883Z,73.41
2023-01-11T21:31:36.664Z,73.19
2023-01-11T21:34:04.691Z,72.94
2023-01-11T21:36:34.941Z,73.33
2023-01-11T21:39:02.867Z,73.54
2023-01-11T21:41:50.613Z,73.61
2023-01-11T21:44:19.134Z,73.22
2023-01-11T21:46:46.750Z,73.26
2023-01-11T21:49:14.788Z,73.51
2023-01-11T21:51:42.413Z,73.67
2023-01-11T21:54:14.492Z,73.43
2023-01-11T21:56:44.174Z,73.52
2023-01-11T21:59:14.294Z,73.35
2023-01-11T22:01:43.997Z,73.28
2023-01-11T22:04:13.672Z,73.31
2023-01-11T22:06:43.112Z,73.94
2023-01-11T22:09:11.768Z,73.84
2023-01-11T22:11:39.259Z,73.94
2023-01-11T22:14:08.640Z,73.83
2023-01-11T22:16:37.096Z,73.52
2023-01-11T22:19:06.820Z,74.28
2023-01-11T22:21:34.229Z,73.89
2023-01-11T22:24:05.047Z,73.99
2023-01-11T22:26:33.747Z,74.25
2023-01-11T22:29:12.904Z,74.04
2023-01-11T22:32:01.046Z,73.75
2023-01-11T22:34:28.579Z,73.72
2023-01-11T22:36:55.664Z,74.03
2023-01-11T22:39:24.240Z,73.74
2023-01-11T22:41:51.641Z,74.33
2023-01-11T22:44:19.079Z,74.13
2023-01-11T22:46:48.887Z,74.22
2023-01-11T22:49:17.556Z,74.43
2023-01-11T22:51:44.742Z,73.77
2023-01-11T22:54:12.166Z,73.65
2023-01-11T22:56:39.521Z,73.86
2023-01-11T22:59:06.856Z,74.46
2023-01-11T23:01:36.055Z,74.00
2023-01-11T23:04:03.438Z,73.91
2023-01-11T23:06:38.693Z,74.02
2023-01-11T23:09:07.959Z,73.97
2023-01-11T23:11:58.153Z,74.33
2023-01-11T23:14:30.484Z,74.06
2023-01-11T23:17:00.777Z,74.00
2023-01-11T23:19:27.709Z,74.55
2023-01-11T23:21:54.931Z,74.64
2023-01-11T23:24:22.305Z,75.01
2023-01-11T23:26:49.238Z,75.84
2023-01-11T23:29:16.499Z,76.13
2023-01-11T23:31:43.684Z,75.48
2023-01-11T23:34:12.123Z,75.98
2023-01-11T23:36:41.672Z,76.20
2023-01-11T23:39:14.778Z,76.27
2023-01-11T23:42:00.671Z,76.53
2023-01-11T23:44:27.868Z,76.85
2023-01-11T23:47:13.243Z,76.76
2023-01-11T23:49:40.976Z,76.62
2023-01-11T23:52:07.833Z,76.46
2023-01-11T23:54:35.085Z,76.03
2023-01-11T23:57:02.839Z,76.54
2023-01-11T23:59:30.577Z,76.41
